createdAt,value
2022-12-18T00:04:31.754Z,100962.69
2022-12-18T00:09:39.769Z,100812.19
2022-12-18T00:14:42.511Z,100912.25
2022-12-18T00:19:44.081Z,100782.59
2022-12-18T00:24:45.642Z,100745.91
2022-12-18T00:29:47.246Z,100790.03
2022-12-18T00:34:48.833Z,100953.56
2022-12-18T00:39:50.759Z,100829.44
2022-12-18T00:44:52.674Z,100812.81
2022-12-18T00:49:54.371Z,100839.50
2022-12-18T00:54:56.030Z,100816.13
2022-12-18T00:59:57.622Z,100806.41
2022-12-18T01:04:59.209Z,100754.97
2022-12-18T01:10:00.857Z,100840.81
2022-12-18T01:15:03.401Z,100853.72
2022-12-18T01:20:05.854Z,100804.63
2022-12-18T01:25:07.905Z,100871.59
2022-12-18T01:30:10.310Z,100899.63
2022-12-18T01:35:11.894Z,100881.06
2022-12-18T01:40:13.885Z,100859.13
2022-12-18T01:45:15.436Z,100869.72
2022-12-18T01:50:29.744Z,100874.34
2022-12-18T01:55:36.194Z,100928.97
2022-12-18T02:00:37.892Z,100817.88
2022-12-18T02:06:05.471Z,100841.09
2022-12-18T02:11:50.419Z,100935.78
2022-12-18T02:16:54.845Z,100881.13
2022-12-18T02:22:02.433Z,100856.38
2022-12-18T02:27:07.618Z,100854.97
2022-12-18T02:32:18.857Z,100902.72
2022-12-18T02:37:21.946Z,100830.00
2022-12-18T02:42:24.366Z,100817.47
2022-12-18T02:47:32.337Z,100893.06
2022-12-18T02:52:49.559Z,100996.13
2022-12-18T02:57:55.033Z,100922.19
2022-12-18T03:03:06.419Z,100916.25
2022-12-18T03:08:35.057Z,100914.81
2022-12-18T03:13:49.331Z,100893.38
2022-12-18T03:18:56.042Z,100902.28
2022-12-18T03:23:58.148Z,100972.13
2022-12-18T03:29:10.090Z,100909.03
2022-12-18T03:34:18.871Z,100943.16
2022-12-18T03:39:21.153Z,100978.94
2022-12-18T03:44:49.084Z,100904.59
2022-12-18T03:50:00.402Z,100893.16
2022-12-18T03:55:04.477Z,100926.56
2022-12-18T04:00:11.702Z,100879.06
2022-12-18T04:05:15.336Z,100946.88
2022-12-18T04:10:18.374Z,100921.53
2022-12-18T04:15:20.151Z,100879.56
2022-12-18T04:20:21.734Z,100857.91
2022-12-18T04:25:23.418Z,101021.84
2022-12-18T04:30:25.030Z,100942.19
2022-12-18T04:35:26.754Z,101013.31
2022-12-18T04:40:28.478Z,100982.38
2022-12-18T04:45:31.809Z,101055.47
2022-12-18T04:50:33.583Z,100972.31
2022-12-18T04:55:35.178Z,100865.41
2022-12-18T05:00:36.753Z,101017.31
2022-12-18T05:05:38.666Z,101063.91
2022-12-18T05:10:40.242Z,100926.91
2022-12-18T05:15:42.914Z,101054.16
2022-12-18T05:20:44.549Z,100940.28
2022-12-18T05:26:00.922Z,100928.06
2022-12-18T05:31:04.855Z,101094.44
2022-12-18T05:36:08.828Z,100814.19
2022-12-18T05:41:10.830Z,100902.59
2022-12-18T05:46:15.892Z,100928.94
2022-12-18T05:51:21.273Z,101048.69
2022-12-18T05:56:24.026Z,100928.63
2022-12-18T06:01:27.496Z,100944.84
2022-12-18T06:06:29.906Z,101013.41
2022-12-18T06:11:31.473Z,100901.72
2022-12-18T06:16:33.655Z,100967.34
2022-12-18T06:21:35.504Z,100906.75
2022-12-18T06:26:39.963Z,100950.47
2022-12-18T06:31:41.716Z,101039.84
2022-12-18T06:36:43.368Z,100869.00
2022-12-18T06:41:45.758Z,100995.16
2022-12-18T06:46:47.529Z,100936.72
2022-12-18T06:51:49.206Z,100902.16
2022-12-18T06:56:50.804Z,100989.28
2022-12-18T07:01:52.716Z,100924.44
2022-12-18T07:06:56.008Z,100988.31
2022-12-18T07:11:57.704Z,101032.81
2022-12-18T07:16:59.801Z,101137.63
2022-12-18T07:22:02.563Z,101049.31
2022-12-18T07:27:04.690Z,100960.41
2022-12-18T07:32:08.101Z,101057.78
2022-12-18T07:37:10.679Z,100992.03
2022-12-18T07:42:31.045Z,101047.09
2022-12-18T07:47:35.704Z,101080.25
2022-12-18T07:52:37.330Z,100945.50
2022-12-18T07:57:50.552Z,101089.59
2022-12-18T08:02:54.399Z,101004.84
2022-12-18T08:07:57.021Z,101035.25
2022-12-18T08:13:03.151Z,101059.69
2022-12-18T08:18:10.092Z,101025.44
2022-12-18T08:23:14.418Z,101185.94
2022-12-18T08:28:16.038Z,101127.91
2022-12-18T08:33:17.675Z,101081.28
2022-12-18T08:38:19.383Z,101098.47
2022-12-18T08:43:41.022Z,101036.63
2022-12-18T08:48:42.924Z,100957.19
2022-12-18T08:53:45.532Z,101005.00
2022-12-18T08:58:47.531Z,100983.03
2022-12-18T09:03:50.430Z,100967.88
2022-12-18T09:08:52.119Z,100950.41
2022-12-18T09:13:54.923Z,101085.63
2022-12-18T09:19:00.562Z,100985.34
2022-12-18T09:24:02.393Z,101088.16
2022-12-18T09:29:04.778Z,101037.78
2022-12-18T09:34:06.386Z,101015.75
2022-12-18T09:39:09.009Z,101074.44
2022-12-18T09:44:19.610Z,101101.97
2022-12-18T09:49:24.794Z,101086.59
2022-12-18T09:54:44.723Z,101088.97
2022-12-18T09:59:54.082Z,101171.69
2022-12-18T10:05:06.453Z,100999.56
2022-12-18T10:10:27.647Z,101036.69
2022-12-18T10:15:58.719Z,100989.09
2022-12-18T10:21:24.938Z,101064.34
2022-12-18T10:26:26.818Z,100963.09
2022-12-18T10:31:28.649Z,101104.31
2022-12-18T10:36:30.678Z,100992.88
2022-12-18T10:41:33.382Z,101046.84
2022-12-18T10:46:35.374Z,101103.94
2022-12-18T10:51:38.963Z,100887.22
2022-12-18T10:56:41.481Z,101137.19
2022-12-18T11:06:25.382Z,100936.03
2022-12-18T11:11:27.798Z,101095.28
2022-12-18T11:16:34.001Z,100943.47
2022-12-18T11:21:42.055Z,101114.56
2022-12-18T11:26:44.435Z,101017.53
2022-12-18T11:31:46.240Z,100993.75
2022-12-18T11:36:49.551Z,100925.59
2022-12-18T11:42:11.093Z,100947.78
2022-12-18T11:47:16.886Z,100923.44
2022-12-18T11:52:40.045Z,100909.31
2022-12-18T11:58:07.446Z,100968.22
2022-12-18T12:03:25.476Z,100944.38
2022-12-18T12:08:36.166Z,100932.13
2022-12-18T12:14:10.238Z,100990.13
2022-12-18T12:19:11.752Z,100909.06
2022-12-18T12:24:46.947Z,100962.84
2022-12-18T12:30:08.773Z,101029.31
2022-12-18T12:35:17.923Z,100971.66
2022-12-18T12:40:50.106Z,100860.69
2022-12-18T12:46:10.017Z,100962.41
2022-12-18T12:51:22.365Z,100926.31
2022-12-18T12:56:28.399Z,100989.66
2022-12-18T13:01:49.213Z,100865.78
2022-12-18T13:07:04.798Z,100865.13
2022-12-18T13:12:34.857Z,100878.34
2022-12-18T13:17:36.782Z,100873.03
2022-12-18T13:22:50.040Z,100945.84
2022-12-18T13:28:05.356Z,100917.13
2022-12-18T13:33:18.747Z,100792.94
2022-12-18T13:38:32.245Z,100980.97
2022-12-18T13:43:37.915Z,100907.34
2022-12-18T13:48:40.079Z,100902.03
2022-12-18T13:53:50.677Z,100993.22
2022-12-18T13:59:18.585Z,100842.84
2022-12-18T14:04:24.870Z,100772.06
2022-12-18T14:09:30.985Z,100920.22
2022-12-18T14:14:34.382Z,100817.22
2022-12-18T14:19:37.026Z,100808.25
2022-12-18T14:24:38.759Z,100923.63
2022-12-18T14:29:44.060Z,100887.13
2022-12-18T14:34:51.964Z,100820.41
2022-12-18T14:40:10.462Z,100732.69
2022-12-18T14:45:42.236Z,100857.72
2022-12-18T14:50:46.010Z,100796.59
2022-12-18T14:55:49.053Z,100779.91
2022-12-18T15:00:51.086Z,100825.16
2022-12-18T15:05:52.832Z,100834.44
2022-12-18T15:10:54.557Z,100724.97
2022-12-18T15:16:02.460Z,100880.50
2022-12-18T15:21:11.994Z,100864.38
2022-12-18T15:26:17.180Z,100790.03
2022-12-18T15:31:32.188Z,100816.47
2022-12-18T15:36:37.458Z,100865.25
2022-12-18T15:41:39.346Z,100809.56
2022-12-18T15:46:40.995Z,100813.50
2022-12-18T15:51:43.095Z,100876.84
2022-12-18T15:57:03.331Z,100874.03
2022-12-18T16:02:17.157Z,100823.72
2022-12-18T16:07:24.562Z,100784.72
2022-12-18T16:12:27.404Z,100799.34
2022-12-18T16:17:29.085Z,100829.44
2022-12-18T16:22:31.446Z,100851.28
2022-12-18T16:27:33.019Z,100773.25
2022-12-18T16:32:34.580Z,100879.56
2022-12-18T16:37:36.221Z,100788.81
2022-12-18T16:42:40.267Z,100795.41
2022-12-18T16:47:42.161Z,100819.69
2022-12-18T16:52:43.995Z,100812.16
2022-12-18T16:57:45.603Z,100889.31
2022-12-18T17:02:47.870Z,100838.06
2022-12-18T17:07:49.671Z,100860.13
2022-12-18T17:12:51.574Z,100826.31
2022-12-18T17:17:53.135Z,100816.97
2022-12-18T17:22:55.643Z,100840.78
2022-12-18T17:27:58.413Z,100916.22
2022-12-18T17:32:59.962Z,100836.13
2022-12-18T17:38:01.785Z,100863.03
2022-12-18T17:43:03.647Z,100787.31
2022-12-18T17:48:06.553Z,100848.59
2022-12-18T17:53:08.126Z,100891.53
2022-12-18T17:58:09.833Z,100934.41
2022-12-18T18:03:11.537Z,100876.88
2022-12-18T18:08:13.536Z,100805.41
2022-12-18T18:13:46.640Z,100890.06
2022-12-18T18:18:48.834Z,100812.34
2022-12-18T18:23:50.419Z,100901.38
2022-12-18T18:28:54.503Z,100896.97
2022-12-18T18:33:57.130Z,100904.03
2022-12-18T18:39:00.623Z,100860.19
2022-12-18T18:44:02.256Z,100878.69
2022-12-18T18:49:05.611Z,100894.44
2022-12-18T18:54:07.311Z,100852.31
2022-12-18T18:59:09.003Z,100828.72
2022-12-18T19:04:10.634Z,100817.31
2022-12-18T19:09:12.632Z,100873.75
2022-12-18T19:14:15.667Z,100808.94
2022-12-18T19:19:23.154Z,100808.22
2022-12-18T19:24:24.990Z,100789.56
2022-12-18T19:29:26.749Z,100792.38
2022-12-18T19:34:28.383Z,100840.03
2022-12-18T19:39:30.066Z,100921.56
2022-12-18T19:44:31.870Z,100895.56
2022-12-18T19:49:33.734Z,100835.59
2022-12-18T19:54:36.420Z,100832.06
2022-12-18T19:59:38.250Z,100754.00
2022-12-18T20:04:41.191Z,100789.97
2022-12-18T20:09:42.863Z,100845.41
2022-12-18T20:14:45.171Z,100822.78
2022-12-18T20:19:46.830Z,100817.28
2022-12-18T20:24:49.570Z,100811.25
2022-12-18T20:29:52.056Z,100814.06
2022-12-18T20:34:53.696Z,100813.25
2022-12-18T20:39:56.333Z,100815.22
2022-12-18T20:44:58.032Z,100868.69
2022-12-18T20:50:00.882Z,100837.53
2022-12-18T20:55:02.550Z,100769.75
2022-12-18T21:00:04.958Z,100861.50
2022-12-18T21:05:06.990Z,100876.50
2022-12-18T21:10:09.032Z,100819.66
2022-12-18T21:15:10.916Z,100839.28
2022-12-18T21:20:17.411Z,100762.59
2022-12-18T21:25:19.890Z,100789.19
2022-12-18T21:30:21.515Z,100802.38
2022-12-18T21:35:23.595Z,100789.41
2022-12-18T21:40:27.664Z,100795.75
2022-12-18T21:45:29.343Z,100783.31
2022-12-18T21:50:30.990Z,100752.69
2022-12-18T21:55:32.643Z,100778.38
2022-12-18T22:00:34.214Z,100769.03
2022-12-18T22:05:36.130Z,100826.06
2022-12-18T22:10:38.229Z,100805.47
2022-12-18T22:15:40.312Z,100734.66
2022-12-18T22:20:42.107Z,100804.03
2022-12-18T22:25:43.841Z,100828.75
2022-12-18T22:30:45.504Z,100778.84
2022-12-18T22:35:47.146Z,100801.44
2022-12-18T22:40:49.403Z,100809.81
2022-12-18T22:45:54.105Z,100789.75
2022-12-18T22:50:58.986Z,100871.97
2022-12-18T22:56:02.324Z,100883.09
2022-12-18T23:01:04.733Z,100910.13
2022-12-18T23:06:08.013Z,100830.22
2022-12-18T23:11:10.371Z,100788.84
2022-12-18T23:16:14.441Z,100832.41
2022-12-18T23:21:19.597Z,100745.56
2022-12-18T23:26:23.514Z,100839.22
2022-12-18T23:31:28.927Z,100753.69
2022-12-18T23:36:31.084Z,100798.78
2022-12-18T23:41:39.343Z,100797.59
2022-12-18T23:46:41.030Z,100739.41
2022-12-18T23:51:42.900Z,100742.09
2022-12-18T23:56:45.187Z,100774.19
